createdAt,value
2017-09-26T00:00:22.516Z,28.90
2017-09-26T00:03:23.771Z,28.30
2017-09-26T00:06:25.821Z,28.37
2017-09-26T00:09:27.115Z,30.20
2017-09-26T00:12:28.379Z,28.40
2017-09-26T00:15:29.610Z,29.57
2017-09-26T00:18:30.881Z,31.13
2017-09-26T00:21:32.179Z,28.53
2017-09-26T00:24:34.254Z,28.03
2017-09-26T00:27:36.383Z,30.13
2017-09-26T00:30:37.643Z,29.77
2017-09-26T00:33:38.959Z,29.90
2017-09-26T00:36:40.981Z,30.87
2017-09-26T00:39:42.319Z,31.03
2017-09-26T00:42:43.626Z,28.10
2017-09-26T00:45:45.711Z,31.10
2017-09-26T00:48:46.955Z,28.40
2017-09-26T00:51:49.039Z,29.50
2017-09-26T00:54:50.478Z,31.70
2017-09-26T00:57:51.802Z,28.77
2017-09-26T01:00:53.122Z,27.57
2017-09-26T01:07:32.915Z,34.30
2017-09-26T01:10:34.212Z,33.20
2017-09-26T01:13:35.508Z,32.90
2017-09-26T01:16:36.822Z,33.27
2017-09-26T01:19:38.148Z,31.20
2017-09-26T01:22:39.930Z,30.93
2017-09-26T01:25:41.198Z,31.20
2017-09-26T01:28:42.511Z,30.90
2017-09-26T01:31:43.807Z,31.57
2017-09-26T01:34:45.127Z,29.40
2017-09-26T01:37:46.409Z,30.77
2017-09-26T01:41:06.308Z,29.33
2017-09-26T01:44:07.582Z,30.23
2017-09-26T01:47:09.602Z,31.03
2017-09-26T01:50:10.942Z,30.37
2017-09-26T01:53:12.207Z,29.30
2017-09-26T01:59:51.618Z,29.47
2017-09-26T02:02:52.931Z,27.77
2017-09-26T02:05:54.199Z,26.67
2017-09-26T02:08:55.489Z,28.20
2017-09-26T02:11:57.045Z,28.47
2017-09-26T02:14:58.332Z,27.90
2017-09-26T02:17:59.606Z,28.30
2017-09-26T02:21:00.866Z,26.30
2017-09-26T02:24:02.205Z,27.67
2017-09-26T02:27:03.488Z,28.13
2017-09-26T02:30:04.813Z,27.17
2017-09-26T02:33:06.087Z,27.73
2017-09-26T02:36:07.368Z,27.70
2017-09-26T02:39:08.879Z,25.53
2017-09-26T02:42:10.138Z,26.10
2017-09-26T02:45:11.426Z,22.67
2017-09-26T02:48:13.450Z,24.43
2017-09-26T02:51:14.718Z,27.77
2017-09-26T02:54:15.997Z,26.20
2017-09-26T02:57:18.004Z,25.57
2017-09-26T03:00:19.295Z,24.40
2017-09-26T03:03:20.579Z,24.57
2017-09-26T03:06:22.027Z,24.67
2017-09-26T03:09:23.302Z,24.07
2017-09-26T03:12:24.601Z,27.10
2017-09-26T03:15:26.626Z,25.00
2017-09-26T03:18:27.939Z,26.00
2017-09-26T03:21:29.226Z,26.40
2017-09-26T03:24:30.544Z,25.43
2017-09-26T03:27:31.826Z,24.37
2017-09-26T03:30:33.111Z,23.60
2017-09-26T03:33:35.239Z,25.20
2017-09-26T03:36:36.494Z,24.13
2017-09-26T03:39:37.790Z,23.83
2017-09-26T03:42:39.784Z,25.20
2017-09-26T03:45:41.142Z,24.93
2017-09-26T03:48:42.432Z,26.43
2017-09-26T03:51:43.724Z,27.77
2017-09-26T03:54:45.050Z,27.13
2017-09-26T03:57:47.133Z,26.07
2017-09-26T04:00:48.438Z,24.40
2017-09-26T04:03:49.738Z,25.17
2017-09-26T04:06:51.028Z,23.77
2017-09-26T04:09:52.381Z,21.97
2017-09-26T04:12:54.078Z,21.70
2017-09-26T04:15:56.158Z,22.10
2017-09-26T04:18:57.718Z,23.53
2017-09-26T04:21:59.461Z,22.60
2017-09-26T04:25:00.811Z,23.10
2017-09-26T04:28:02.859Z,22.53
2017-09-26T04:31:04.945Z,22.17
2017-09-26T04:34:06.211Z,22.07
2017-09-26T04:37:07.509Z,22.27
2017-09-26T04:40:08.763Z,21.57
2017-09-26T04:43:10.052Z,22.60
2017-09-26T04:46:11.311Z,22.93
2017-09-26T04:49:12.665Z,23.27
2017-09-26T04:52:13.946Z,25.00
2017-09-26T04:55:15.252Z,24.50
2017-09-26T04:58:16.506Z,24.20
2017-09-26T05:01:17.818Z,23.77
2017-09-26T05:04:19.835Z,22.90
2017-09-26T05:07:21.124Z,22.20
2017-09-26T05:10:22.426Z,22.40
2017-09-26T05:13:23.738Z,22.57
2017-09-26T05:16:25.780Z,19.83
2017-09-26T05:19:27.095Z,23.53
2017-09-26T05:22:28.367Z,20.43
2017-09-26T05:25:29.638Z,19.97
2017-09-26T05:28:31.679Z,21.67
2017-09-26T05:31:32.934Z,22.73
2017-09-26T05:34:34.234Z,21.57
2017-09-26T05:37:35.496Z,21.83
2017-09-26T05:40:36.783Z,21.40
2017-09-26T05:43:38.091Z,22.63
2017-09-26T05:46:39.378Z,19.90
2017-09-26T05:49:40.667Z,22.50
2017-09-26T05:52:41.944Z,20.43
2017-09-26T05:55:43.243Z,22.60
2017-09-26T05:58:45.630Z,21.20
2017-09-26T06:01:47.662Z,21.13
2017-09-26T06:04:49.283Z,21.53
2017-09-26T06:07:50.858Z,20.33
2017-09-26T06:10:52.166Z,18.90
2017-09-26T06:13:53.547Z,21.67
2017-09-26T06:16:54.827Z,20.93
2017-09-26T06:19:56.231Z,22.90
2017-09-26T06:22:57.482Z,20.93
2017-09-26T06:25:58.805Z,20.10
2017-09-26T06:29:00.805Z,21.67
2017-09-26T06:32:02.090Z,23.83
2017-09-26T06:35:03.379Z,24.10
2017-09-26T06:38:04.684Z,24.53
2017-09-26T06:41:05.959Z,24.37
2017-09-26T06:44:07.979Z,24.33
2017-09-26T06:47:09.242Z,24.80
2017-09-26T06:50:10.566Z,23.90
2017-09-26T06:53:12.089Z,26.00
2017-09-26T06:56:13.375Z,24.30
2017-09-26T06:59:14.684Z,24.30
2017-09-26T07:02:15.958Z,25.13
2017-09-26T07:05:17.271Z,25.37
2017-09-26T07:08:19.349Z,22.60
2017-09-26T07:11:21.387Z,23.97
2017-09-26T07:14:23.847Z,24.90
2017-09-26T07:17:25.151Z,23.73
2017-09-26T07:20:26.528Z,22.63
2017-09-26T07:23:27.834Z,26.40
2017-09-26T07:26:29.225Z,23.43
2017-09-26T07:29:30.487Z,26.07
2017-09-26T07:32:32.883Z,23.63
2017-09-26T07:35:34.244Z,22.90
2017-09-26T07:38:36.294Z,25.40
2017-09-26T07:41:37.564Z,24.87
2017-09-26T07:44:39.628Z,24.27
2017-09-26T07:47:41.659Z,23.47
2017-09-26T07:50:42.991Z,22.37
2017-09-26T07:53:44.411Z,24.93
2017-09-26T07:56:45.682Z,25.00
2017-09-26T07:59:47.112Z,22.67
2017-09-26T08:02:48.390Z,23.50
2017-09-26T08:05:50.470Z,22.37
2017-09-26T08:08:53.274Z,22.80
2017-09-26T08:11:54.674Z,39.40
2017-09-26T08:14:56.722Z,24.47
2017-09-26T08:17:57.979Z,23.07
2017-09-26T08:20:59.376Z,24.60
2017-09-26T08:24:01.403Z,23.20
2017-09-26T08:27:09.650Z,23.67
2017-09-26T08:30:11.636Z,22.90
2017-09-26T08:33:12.953Z,24.10
2017-09-26T08:36:14.231Z,21.63
2017-09-26T08:39:15.541Z,22.20
2017-09-26T08:42:16.836Z,22.13
2017-09-26T08:45:18.150Z,25.10
2017-09-26T08:48:19.428Z,25.20
2017-09-26T08:51:20.702Z,21.77
2017-09-26T08:54:22.006Z,21.13
2017-09-26T08:57:24.032Z,23.87
2017-09-26T09:00:25.335Z,21.23
2017-09-26T09:03:27.363Z,22.30
2017-09-26T09:06:28.674Z,20.27
2017-09-26T09:09:29.958Z,21.97
2017-09-26T09:12:31.331Z,19.60
2017-09-26T09:15:32.742Z,20.10
2017-09-26T09:18:34.006Z,20.80
2017-09-26T09:21:35.300Z,20.60
2017-09-26T09:24:36.588Z,18.67
2017-09-26T09:27:37.885Z,19.40
2017-09-26T09:30:39.883Z,20.57
2017-09-26T09:33:41.172Z,18.70
2017-09-26T09:36:42.446Z,19.90
2017-09-26T09:39:44.472Z,20.27
2017-09-26T09:42:45.758Z,19.27
2017-09-26T09:45:47.825Z,18.90
2017-09-26T09:48:49.842Z,17.77
2017-09-26T09:51:51.147Z,17.07
2017-09-26T09:54:53.275Z,16.07
2017-09-26T09:57:54.541Z,17.53
2017-09-26T10:00:55.998Z,17.30
2017-09-26T10:03:57.282Z,18.17
2017-09-26T10:06:58.556Z,16.47
2017-09-26T10:09:59.826Z,17.50
2017-09-26T10:13:01.154Z,16.77
2017-09-26T10:16:02.424Z,16.27
2017-09-26T10:19:03.715Z,16.30
2017-09-26T10:22:05.108Z,16.23
2017-09-26T10:25:06.385Z,16.20
2017-09-26T10:28:07.662Z,16.30
2017-09-26T10:31:09.672Z,15.87
2017-09-26T10:34:10.942Z,17.73
2017-09-26T10:37:12.205Z,16.80
2017-09-26T10:40:13.487Z,17.87
2017-09-26T10:43:14.755Z,13.50
2017-09-26T10:46:16.064Z,13.87
2017-09-26T10:49:17.334Z,13.20
2017-09-26T10:52:18.634Z,12.83
2017-09-26T10:55:19.892Z,12.00
2017-09-26T10:58:21.218Z,12.00
2017-09-26T11:01:23.208Z,13.20
2017-09-26T11:04:24.519Z,15.57
2017-09-26T11:07:25.768Z,14.10
2017-09-26T11:10:27.048Z,13.80
2017-09-26T11:13:28.493Z,13.73
2017-09-26T11:16:29.788Z,12.50
2017-09-26T11:19:31.397Z,12.77
2017-09-26T11:22:33.391Z,12.33
2017-09-26T11:25:34.714Z,13.03
2017-09-26T11:28:35.977Z,13.40
2017-09-26T11:31:37.290Z,12.30
2017-09-26T11:34:38.537Z,12.20
2017-09-26T11:37:39.836Z,13.27
2017-09-26T11:40:41.140Z,11.20
2017-09-26T11:43:43.154Z,11.83
2017-09-26T11:46:44.436Z,11.87
2017-09-26T11:49:45.718Z,11.63
2017-09-26T11:52:47.007Z,11.40
2017-09-26T11:55:48.265Z,11.20
2017-09-26T11:58:49.568Z,11.57
2017-09-26T12:01:50.843Z,11.80
2017-09-26T12:04:52.166Z,12.23
2017-09-26T12:07:53.593Z,11.67
2017-09-26T12:10:54.935Z,10.97
2017-09-26T12:17:27.230Z,9.60
2017-09-26T12:20:28.511Z,10.67
2017-09-26T12:23:29.778Z,11.30
2017-09-26T12:26:31.073Z,10.40
2017-09-26T12:29:32.514Z,10.80
2017-09-26T12:32:33.784Z,12.33
2017-09-26T12:35:35.315Z,13.23
2017-09-26T12:38:36.618Z,13.97
2017-09-26T12:41:37.901Z,15.30
2017-09-26T12:44:39.194Z,13.80
2017-09-26T12:47:41.209Z,15.30
2017-09-26T12:50:42.446Z,14.40
2017-09-26T12:53:43.830Z,13.80
2017-09-26T12:56:45.112Z,12.70
2017-09-26T12:59:47.135Z,13.97
2017-09-26T13:02:48.476Z,15.50
2017-09-26T13:05:50.054Z,13.13
2017-09-26T13:08:51.385Z,14.00
2017-09-26T13:11:52.722Z,12.27
2017-09-26T13:14:54.074Z,14.57
2017-09-26T13:17:55.369Z,15.17
2017-09-26T13:20:57.502Z,15.73
2017-09-26T13:23:59.142Z,13.10
2017-09-26T13:27:00.407Z,16.83
2017-09-26T13:30:01.684Z,16.63
2017-09-26T13:33:02.955Z,17.57
2017-09-26T13:36:04.975Z,18.07
2017-09-26T13:39:06.236Z,15.73
2017-09-26T13:42:07.536Z,15.83
2017-09-26T13:45:08.928Z,15.60
2017-09-26T13:48:10.205Z,16.67
2017-09-26T13:51:12.257Z,14.57
2017-09-26T13:54:13.537Z,13.53
2017-09-26T13:57:14.877Z,15.47
2017-09-26T14:00:16.906Z,54.63
2017-09-26T14:03:18.198Z,10.00
2017-09-26T14:06:19.479Z,6.37
2017-09-26T14:09:20.783Z,7.17
2017-09-26T14:12:22.883Z,6.97
2017-09-26T14:15:24.183Z,5.70
2017-09-26T14:18:25.437Z,5.80
2017-09-26T14:21:26.726Z,5.70
2017-09-26T14:24:28.005Z,6.23
2017-09-26T14:27:29.294Z,6.33
2017-09-26T14:30:31.388Z,6.87
2017-09-26T14:33:32.880Z,6.33
2017-09-26T14:36:34.149Z,6.60
2017-09-26T14:39:35.419Z,5.53
2017-09-26T14:42:37.511Z,6.30
2017-09-26T14:45:38.812Z,5.23
2017-09-26T14:48:40.130Z,5.13
2017-09-26T14:51:41.379Z,6.33
2017-09-26T14:54:42.647Z,5.43
2017-09-26T14:57:44.263Z,5.50
2017-09-26T15:00:45.563Z,4.77
2017-09-26T15:03:47.605Z,7.47
2017-09-26T15:06:48.887Z,7.10
2017-09-26T15:09:50.176Z,4.03
2017-09-26T15:12:51.472Z,5.20
2017-09-26T15:15:53.510Z,4.33
2017-09-26T15:18:55.067Z,5.40
2017-09-26T15:21:56.352Z,3.97
2017-09-26T15:24:57.672Z,4.23
2017-09-26T15:27:58.964Z,3.60
2017-09-26T15:31:01.024Z,3.60
2017-09-26T15:34:03.037Z,3.10
2017-09-26T15:37:04.331Z,4.50
2017-09-26T15:40:05.604Z,3.53
2017-09-26T15:43:07.651Z,3.97
2017-09-26T15:46:09.684Z,4.10
2017-09-26T15:49:10.959Z,4.53
2017-09-26T15:52:12.264Z,4.57
2017-09-26T15:55:13.525Z,4.40
2017-09-26T15:58:14.833Z,4.40
2017-09-26T16:01:16.822Z,4.73
2017-09-26T16:04:18.097Z,4.53
2017-09-26T16:07:19.386Z,5.03
2017-09-26T16:10:21.404Z,4.30
2017-09-26T16:13:22.768Z,4.57
2017-09-26T16:16:24.066Z,5.20
2017-09-26T16:19:25.479Z,4.27
2017-09-26T16:22:26.738Z,3.30
2017-09-26T16:25:28.032Z,4.37
2017-09-26T16:28:29.299Z,4.47
2017-09-26T16:31:31.364Z,4.43
2017-09-26T16:34:33.398Z,4.20
2017-09-26T16:37:34.674Z,3.70
2017-09-26T16:40:36.083Z,3.77
2017-09-26T16:43:37.315Z,3.73
2017-09-26T16:46:38.613Z,4.80
2017-09-26T16:49:39.878Z,4.00
2017-09-26T16:52:41.931Z,5.80
2017-09-26T16:55:43.184Z,6.70
2017-09-26T16:58:45.224Z,5.50
2017-09-26T17:01:46.479Z,5.20
2017-09-26T17:04:47.808Z,5.03
2017-09-26T17:07:49.186Z,5.90
2017-09-26T17:10:50.430Z,5.10
2017-09-26T17:13:51.831Z,5.47
2017-09-26T17:16:53.088Z,6.03
2017-09-26T17:19:54.379Z,6.77
2017-09-26T17:22:55.619Z,7.07
2017-09-26T17:25:56.916Z,7.07
2017-09-26T17:28:58.175Z,8.07
2017-09-26T17:31:59.468Z,6.63
2017-09-26T17:35:00.870Z,7.57
2017-09-26T17:38:02.147Z,7.30
2017-09-26T17:41:03.442Z,7.40
2017-09-26T17:44:05.474Z,7.13
2017-09-26T17:47:07.526Z,8.83
2017-09-26T17:50:09.549Z,7.90
2017-09-26T17:53:11.875Z,8.20
2017-09-26T17:56:13.179Z,8.10
2017-09-26T17:59:14.514Z,8.50
2017-09-26T18:02:16.580Z,9.93
2017-09-26T18:05:18.631Z,9.03
2017-09-26T18:08:21.528Z,9.20
2017-09-26T18:11:23.784Z,9.03
2017-09-26T18:14:25.088Z,9.07
2017-09-26T18:17:26.339Z,8.93
2017-09-26T18:20:27.638Z,7.50
2017-09-26T18:23:28.883Z,7.73
2017-09-26T18:26:30.167Z,6.77
2017-09-26T18:29:31.466Z,8.13
2017-09-26T18:32:32.780Z,7.10
2017-09-26T18:35:34.193Z,7.73
2017-09-26T18:38:36.187Z,7.90
2017-09-26T18:41:37.460Z,8.57
2017-09-26T18:44:38.766Z,8.83
2017-09-26T18:47:40.826Z,9.17
2017-09-26T18:50:42.087Z,8.13
2017-09-26T18:53:43.403Z,8.23
2017-09-26T18:56:44.678Z,8.27
2017-09-26T18:59:46.675Z,8.80
2017-09-26T19:02:47.944Z,8.60
2017-09-26T19:05:49.231Z,7.80
2017-09-26T19:08:51.290Z,6.93
2017-09-26T19:11:52.609Z,6.40
2017-09-26T19:14:53.902Z,5.90
2017-09-26T19:17:55.927Z,6.03
2017-09-26T19:20:57.233Z,6.10
2017-09-26T19:23:58.528Z,5.77
2017-09-26T19:26:59.843Z,5.77
2017-09-26T19:30:01.449Z,6.27
2017-09-26T19:33:02.705Z,5.83
2017-09-26T19:36:04.400Z,9.87
2017-09-26T19:39:06.495Z,7.17
2017-09-26T19:42:07.828Z,5.90
2017-09-26T19:45:10.756Z,6.27
2017-09-26T19:48:13.782Z,6.00
2017-09-26T19:51:16.207Z,5.70
2017-09-26T19:54:18.573Z,5.70
2017-09-26T19:57:20.600Z,5.87
2017-09-26T20:00:22.314Z,6.37
2017-09-26T20:03:25.152Z,6.13
2017-09-26T20:06:26.512Z,5.83
2017-09-26T20:09:28.563Z,5.90
2017-09-26T20:12:31.733Z,6.90
2017-09-26T20:15:34.186Z,6.53
2017-09-26T20:18:37.049Z,6.23
2017-09-26T20:21:38.478Z,6.07
2017-09-26T20:24:41.002Z,6.53
2017-09-26T20:27:42.271Z,7.03
2017-09-26T20:30:44.332Z,6.50
2017-09-26T20:33:45.605Z,7.03
2017-09-26T20:36:46.890Z,6.80
2017-09-26T20:39:48.206Z,6.17
2017-09-26T20:42:49.496Z,6.77
2017-09-26T20:45:50.819Z,6.90
2017-09-26T20:48:52.123Z,7.20
2017-09-26T20:51:53.839Z,6.60
2017-09-26T20:54:55.142Z,6.57
2017-09-26T20:57:57.240Z,7.30
2017-09-26T21:00:58.518Z,6.70
2017-09-26T21:03:59.809Z,6.60
2017-09-26T21:07:01.807Z,6.23
2017-09-26T21:10:03.128Z,6.73
2017-09-26T21:13:05.166Z,7.00
2017-09-26T21:16:06.472Z,6.37
2017-09-26T21:19:08.211Z,7.00
2017-09-26T21:22:09.460Z,6.47
2017-09-26T21:25:10.747Z,7.87
2017-09-26T21:28:12.025Z,5.87
2017-09-26T21:31:13.311Z,7.10
2017-09-26T21:34:14.595Z,7.80
2017-09-26T21:37:15.907Z,7.13
2017-09-26T21:40:17.171Z,6.40
2017-09-26T21:43:18.470Z,7.10
2017-09-26T21:46:19.733Z,7.33
2017-09-26T21:49:21.748Z,5.70
2017-09-26T21:52:23.004Z,6.47
2017-09-26T21:55:24.292Z,6.57
2017-09-26T21:58:26.315Z,6.13
2017-09-26T22:01:27.631Z,5.90
2017-09-26T22:04:29.030Z,6.73
2017-09-26T22:07:30.294Z,7.00
2017-09-26T22:10:31.705Z,6.63
2017-09-26T22:13:32.992Z,6.23
2017-09-26T22:16:34.290Z,6.53
2017-09-26T22:19:35.546Z,6.53
2017-09-26T22:22:36.859Z,6.93
2017-09-26T22:25:38.896Z,6.97
2017-09-26T22:28:40.168Z,6.70
2017-09-26T22:31:42.193Z,6.67
2017-09-26T22:34:43.511Z,6.97
2017-09-26T22:37:44.942Z,7.23
2017-09-26T22:40:46.935Z,6.80
2017-09-26T22:43:48.206Z,6.20
2017-09-26T22:46:49.501Z,8.10
2017-09-26T22:49:51.509Z,7.00
2017-09-26T22:52:52.780Z,7.80
2017-09-26T22:55:54.080Z,7.40
2017-09-26T22:58:55.340Z,7.50
2017-09-26T23:01:56.660Z,8.77
2017-09-26T23:04:58.692Z,7.83
2017-09-26T23:08:00.016Z,9.53
2017-09-26T23:11:01.295Z,6.53
2017-09-26T23:14:02.616Z,7.83
2017-09-26T23:17:03.906Z,7.97
2017-09-26T23:20:05.238Z,7.97
2017-09-26T23:23:06.551Z,8.20
2017-09-26T23:26:07.835Z,8.83
2017-09-26T23:29:09.142Z,9.47
2017-09-26T23:32:10.434Z,8.30
2017-09-26T23:35:11.753Z,8.20
2017-09-26T23:38:13.907Z,8.70
2017-09-26T23:41:15.261Z,8.27
2017-09-26T23:44:16.590Z,8.20
2017-09-26T23:47:17.849Z,8.80
2017-09-26T23:50:19.239Z,7.67
2017-09-26T23:53:20.695Z,7.77
2017-09-26T23:56:22.006Z,9.10
2017-09-26T23:59:23.275Z,8.47
